Aérodrome :
LOGIN :

S'inscrire | Disclaimer

   EN    FR    IT 

 










Légende :    VFR   VFR Marginal   IFR   IFR Intensif   IFR Très Intensif
Visi : 
Plafond : 
>= 8 km
>= 3000ft
5 à 8 km
1000 à 3000 ft
1500m à 5 km
500 à 1000 ft
800 à 1500m
200 à 500 ft
< 800m
< 200 ft
Symboles :   Orages  Brouillard  Fortes neiges  Fortes précipitations  Vent > 20 kt
SIGMETs :   Divers  Orages  Givrage  Turbulence  Onde Orograph.  Cendres Volcan.







- Altitude de l'aérodrome : 24 ft
- Code IATA : SGD


EKSB - Sonderborg

DERNIER METAR :
  • 131820Z 19012KT 8000 BKN006 02/01 Q0988

METARs EXPIRÉS :
  • 131750Z 18010KT 160V220 5000 -RASN BKN006 02/01 Q0989
  • 131720Z 18010KT 150V210 9000 -RASN BKN005 02/01 Q0989
  • 131650Z 18011KT 150V210 7000 -RASN BKN006 02/01 Q0990
  • 131620Z 18010G20KT 150V210 9999 -RASN SCT006 BKN009 02/01 Q0990
  • 131550Z 18010KT 140V210 9999 -RA BKN006 02/01 Q0991

TAF TAF EKSB
Valide du 13 à 18h jusqu'au 13 à 22h UTC


131750Z 1318/1322 18013KT 6000 -RASN BKN008
TEMPO 1318/1322 1200 SNRA BKN002
Pas de NOTAMs connus pour ce terrain.



MET'MAP, la Météo Aéronautique d'un coup d'oeil ! - Copyright ORBIFLY Décembre 2007 - Disclaimer

ORBIFLY MET'MAP TEAM :

Programmation & Développement : Alexandra Zaïnal
Conception & Développement : Baudouin d'Aumeries
Co-Programmation & Développement : Marc-Olivier Méhu
Soutien technique & logistique : Manuel Goepfert

Contact : metmap@orbifly.com




SOURCES & CREDITS :

   NOAA